sensor_id;sensor_type;location;lat;lon;timestamp;temperature;humidity
78448;SHT31;67742;51.972;5.682;2023-07-09T00:01:49;25.3;58.6
78448;SHT31;67742;51.972;5.682;2023-07-09T00:04:19;25.3;59.2
78448;SHT31;67742;51.972;5.682;2023-07-09T00:06:50;25.3;58.6
78448;SHT31;67742;51.972;5.682;2023-07-09T00:09:21;25.2;58.8
78448;SHT31;67742;51.972;5.682;2023-07-09T00:11:50;25.2;58.9
78448;SHT31;67742;51.972;5.682;2023-07-09T00:14:21;25.2;59.1
78448;SHT31;67742;51.972;5.682;2023-07-09T00:16:50;25.2;59.2
78448;SHT31;67742;51.972;5.682;2023-07-09T00:19:21;25.2;59.0
78448;SHT31;67742;51.972;5.682;2023-07-09T00:21:54;25.1;59.6
78448;SHT31;67742;51.972;5.682;2023-07-09T00:24:23;25.1;59.7
78448;SHT31;67742;51.972;5.682;2023-07-09T00:26:53;25.1;59.8
78448;SHT31;67742;51.972;5.682;2023-07-09T00:29:24;25.1;59.9
78448;SHT31;67742;51.972;5.682;2023-07-09T00:31:52;25.1;60.0
78448;SHT31;67742;51.972;5.682;2023-07-09T00:34:21;25.1;60.1
78448;SHT31;67742;51.972;5.682;2023-07-09T00:36:51;25.0;60.0
78448;SHT31;67742;51.972;5.682;2023-07-09T00:39:22;25.0;60.0
78448;SHT31;67742;51.972;5.682;2023-07-09T00:41:53;25.0;60.1
78448;SHT31;67742;51.972;5.682;2023-07-09T00:44:29;25.0;60.2
78448;SHT31;67742;51.972;5.682;2023-07-09T00:47:17;25.0;60.2
78448;SHT31;67742;51.972;5.682;2023-07-09T00:49:47;25.0;59.8
78448;SHT31;67742;51.972;5.682;2023-07-09T00:52:23;25.0;60.2
78448;SHT31;67742;51.972;5.682;2023-07-09T00:54:55;24.9;60.1
78448;SHT31;67742;51.972;5.682;2023-07-09T00:57:28;24.9;60.1
78448;SHT31;67742;51.972;5.682;2023-07-09T01:00:03;24.9;60.3
78448;SHT31;67742;51.972;5.682;2023-07-09T01:02:36;24.9;60.0
78448;SHT31;67742;51.972;5.682;2023-07-09T01:05:06;24.9;59.9
78448;SHT31;67742;51.972;5.682;2023-07-09T01:07:35;24.8;60.0
78448;SHT31;67742;51.972;5.682;2023-07-09T01:10:05;24.8;60.2
78448;SHT31;67742;51.972;5.682;2023-07-09T01:12:34;24.8;60.1
78448;SHT31;67742;51.972;5.682;2023-07-09T01:15:04;24.8;60.2
78448;SHT31;67742;51.972;5.682;2023-07-09T01:17:34;24.8;60.0
78448;SHT31;67742;51.972;5.682;2023-07-09T01:20:07;24.7;60.0
78448;SHT31;67742;51.972;5.682;2023-07-09T01:22:36;24.7;60.2
78448;SHT31;67742;51.972;5.682;2023-07-09T01:25:07;24.7;60.4
78448;SHT31;67742;51.972;5.682;2023-07-09T01:27:41;24.7;60.6
78448;SHT31;67742;51.972;5.682;2023-07-09T01:30:13;24.6;60.0
78448;SHT31;67742;51.972;5.682;2023-07-09T01:32:43;24.6;60.2
78448;SHT31;67742;51.972;5.682;2023-07-09T01:35:15;24.6;60.1
78448;SHT31;67742;51.972;5.682;2023-07-09T01:37:45;24.6;60.2
78448;SHT31;67742;51.972;5.682;2023-07-09T01:40:18;24.6;60.3
78448;SHT31;67742;51.972;5.682;2023-07-09T01:42:50;24.5;60.2
78448;SHT31;67742;51.972;5.682;2023-07-09T01:45:19;24.5;60.2
78448;SHT31;67742;51.972;5.682;2023-07-09T01:47:48;24.5;60.2
78448;SHT31;67742;51.972;5.682;2023-07-09T01:50:20;24.5;60.2
78448;SHT31;67742;51.972;5.682;2023-07-09T01:52:51;24.5;60.3
78448;SHT31;67742;51.972;5.682;2023-07-09T01:55:21;24.4;60.2
78448;SHT31;67742;51.972;5.682;2023-07-09T01:57:49;24.4;60.6
78448;SHT31;67742;51.972;5.682;2023-07-09T02:00:19;24.4;60.4
78448;SHT31;67742;51.972;5.682;2023-07-09T02:02:48;24.4;60.4
78448;SHT31;67742;51.972;5.682;2023-07-09T02:05:19;24.4;60.5
78448;SHT31;67742;51.972;5.682;2023-07-09T02:07:48;24.3;60.4
78448;SHT31;67742;51.972;5.682;2023-07-09T02:10:18;24.3;60.5
78448;SHT31;67742;51.972;5.682;2023-07-09T02:12:47;24.3;60.6
78448;SHT31;67742;51.972;5.682;2023-07-09T02:15:16;24.3;60.6
78448;SHT31;67742;51.972;5.682;2023-07-09T02:17:45;24.2;60.5
78448;SHT31;67742;51.972;5.682;2023-07-09T02:20:14;24.2;60.4
78448;SHT31;67742;51.972;5.682;2023-07-09T02:22:44;24.2;60.5
78448;SHT31;67742;51.972;5.682;2023-07-09T02:25:13;24.2;60.4
78448;SHT31;67742;51.972;5.682;2023-07-09T02:27:42;24.2;60.5
78448;SHT31;67742;51.972;5.682;2023-07-09T02:30:11;24.1;60.5
78448;SHT31;67742;51.972;5.682;2023-07-09T02:32:40;24.1;60.5
78448;SHT31;67742;51.972;5.682;2023-07-09T02:35:09;24.1;60.5
78448;SHT31;67742;51.972;5.682;2023-07-09T02:37:38;24.1;60.3
78448;SHT31;67742;51.972;5.682;2023-07-09T02:40:13;24.1;60.7
78448;SHT31;67742;51.972;5.682;2023-07-09T02:42:42;24.0;60.8
78448;SHT31;67742;51.972;5.682;2023-07-09T02:45:11;24.0;60.7
78448;SHT31;67742;51.972;5.682;2023-07-09T02:47:39;24.0;60.9
78448;SHT31;67742;51.972;5.682;2023-07-09T02:50:11;24.0;61.0
78448;SHT31;67742;51.972;5.682;2023-07-09T02:52:40;24.0;61.1
78448;SHT31;67742;51.972;5.682;2023-07-09T02:55:11;23.9;61.1
78448;SHT31;67742;51.972;5.682;2023-07-09T02:57:39;23.9;61.1
78448;SHT31;67742;51.972;5.682;2023-07-09T03:00:12;23.9;61.2
78448;SHT31;67742;51.972;5.682;2023-07-09T03:02:41;23.9;61.3
78448;SHT31;67742;51.972;5.682;2023-07-09T03:05:10;23.9;61.3
78448;SHT31;67742;51.972;5.682;2023-07-09T03:07:39;23.8;61.3
78448;SHT31;67742;51.972;5.682;2023-07-09T03:10:09;23.8;61.6
78448;SHT31;67742;51.972;5.682;2023-07-09T03:12:37;23.8;61.7
78448;SHT31;67742;51.972;5.682;2023-07-09T03:15:10;23.8;61.7
78448;SHT31;67742;51.972;5.682;2023-07-09T03:17:39;23.8;61.9
78448;SHT31;67742;51.972;5.682;2023-07-09T03:20:08;23.8;62.0
78448;SHT31;67742;51.972;5.682;2023-07-09T03:22:38;23.7;62.2
78448;SHT31;67742;51.972;5.682;2023-07-09T03:25:07;23.7;62.3
78448;SHT31;67742;51.972;5.682;2023-07-09T03:27:36;23.7;62.5
78448;SHT31;67742;51.972;5.682;2023-07-09T03:30:05;23.7;62.2
78448;SHT31;67742;51.972;5.682;2023-07-09T03:32:34;23.7;62.1
78448;SHT31;67742;51.972;5.682;2023-07-09T03:35:03;23.7;62.9
78448;SHT31;67742;51.972;5.682;2023-07-09T03:37:32;23.7;62.8
78448;SHT31;67742;51.972;5.682;2023-07-09T03:40:01;23.7;62.5
78448;SHT31;67742;51.972;5.682;2023-07-09T03:42:30;23.6;62.7
78448;SHT31;67742;51.972;5.682;2023-07-09T03:45:01;23.6;62.8
78448;SHT31;67742;51.972;5.682;2023-07-09T03:47:30;23.6;62.7
78448;SHT31;67742;51.972;5.682;2023-07-09T03:49:58;23.6;62.7
78448;SHT31;67742;51.972;5.682;2023-07-09T03:52:29;23.6;62.5
78448;SHT31;67742;51.972;5.682;2023-07-09T03:54:57;23.6;62.8
78448;SHT31;67742;51.972;5.682;2023-07-09T03:57:27;23.6;62.8
78448;SHT31;67742;51.972;5.682;2023-07-09T03:59:56;23.6;62.7
78448;SHT31;67742;51.972;5.682;2023-07-09T04:02:25;23.6;63.0
78448;SHT31;67742;51.972;5.682;2023-07-09T04:04:54;23.6;63.1
78448;SHT31;67742;51.972;5.682;2023-07-09T04:07:23;23.5;63.1
78448;SHT31;67742;51.972;5.682;2023-07-09T04:09:51;23.5;63.2
78448;SHT31;67742;51.972;5.682;2023-07-09T04:12:22;23.5;63.3
78448;SHT31;67742;51.972;5.682;2023-07-09T04:14:51;23.5;63.3
78448;SHT31;67742;51.972;5.682;2023-07-09T04:17:20;23.5;63.5
78448;SHT31;67742;51.972;5.682;2023-07-09T04:19:50;23.5;63.5
78448;SHT31;67742;51.972;5.682;2023-07-09T04:22:19;23.5;63.5
78448;SHT31;67742;51.972;5.682;2023-07-09T04:24:48;23.5;63.6
78448;SHT31;67742;51.972;5.682;2023-07-09T04:27:19;23.5;63.9
78448;SHT31;67742;51.972;5.682;2023-07-09T04:29:47;23.5;63.7
78448;SHT31;67742;51.972;5.682;2023-07-09T04:32:17;23.5;63.7
78448;SHT31;67742;51.972;5.682;2023-07-09T04:34:45;23.5;64.0
78448;SHT31;67742;51.972;5.682;2023-07-09T04:37:16;23.5;63.8
78448;SHT31;67742;51.972;5.682;2023-07-09T04:39:45;23.5;63.9
78448;SHT31;67742;51.972;5.682;2023-07-09T04:42:17;23.5;63.6
78448;SHT31;67742;51.972;5.682;2023-07-09T04:44:46;23.6;64.0
78448;SHT31;67742;51.972;5.682;2023-07-09T04:47:15;23.6;63.5
78448;SHT31;67742;51.972;5.682;2023-07-09T04:49:44;23.6;63.8
78448;SHT31;67742;51.972;5.682;2023-07-09T04:52:12;23.6;63.7
78448;SHT31;67742;51.972;5.682;2023-07-09T04:54:42;23.6;64.3
78448;SHT31;67742;51.972;5.682;2023-07-09T04:57:12;23.6;64.2
78448;SHT31;67742;51.972;5.682;2023-07-09T04:59:40;23.6;64.0
78448;SHT31;67742;51.972;5.682;2023-07-09T05:02:11;23.6;64.0
78448;SHT31;67742;51.972;5.682;2023-07-09T05:04:40;23.6;64.2
78448;SHT31;67742;51.972;5.682;2023-07-09T05:07:09;23.7;63.7
78448;SHT31;67742;51.972;5.682;2023-07-09T05:09:37;23.7;63.7
78448;SHT31;67742;51.972;5.682;2023-07-09T05:12:07;23.7;63.9
78448;SHT31;67742;51.972;5.682;2023-07-09T05:14:37;23.7;65.0
78448;SHT31;67742;51.972;5.682;2023-07-09T05:17:06;23.7;65.1
78448;SHT31;67742;51.972;5.682;2023-07-09T05:19:35;23.8;65.9
78448;SHT31;67742;51.972;5.682;2023-07-09T05:22:05;23.8;65.3
78448;SHT31;67742;51.972;5.682;2023-07-09T05:24:33;23.8;65.9
78448;SHT31;67742;51.972;5.682;2023-07-09T05:27:02;23.9;66.2
78448;SHT31;67742;51.972;5.682;2023-07-09T05:29:31;23.9;66.1
78448;SHT31;67742;51.972;5.682;2023-07-09T05:32:00;23.9;65.8
78448;SHT31;67742;51.972;5.682;2023-07-09T05:34:29;24.0;65.4
78448;SHT31;67742;51.972;5.682;2023-07-09T05:36:58;24.0;65.0
78448;SHT31;67742;51.972;5.682;2023-07-09T05:39:26;24.1;64.6
78448;SHT31;67742;51.972;5.682;2023-07-09T05:41:55;24.1;64.5
78448;SHT31;67742;51.972;5.682;2023-07-09T05:44:24;24.2;64.5
78448;SHT31;67742;51.972;5.682;2023-07-09T05:46:54;24.2;64.6
78448;SHT31;67742;51.972;5.682;2023-07-09T05:49:23;24.3;64.7
78448;SHT31;67742;51.972;5.682;2023-07-09T05:51:52;24.3;65.1
78448;SHT31;67742;51.972;5.682;2023-07-09T05:54:20;24.4;65.3
78448;SHT31;67742;51.972;5.682;2023-07-09T05:56:49;24.4;65.5
78448;SHT31;67742;51.972;5.682;2023-07-09T05:59:18;24.5;65.6
78448;SHT31;67742;51.972;5.682;2023-07-09T06:01:47;24.5;65.1
78448;SHT31;67742;51.972;5.682;2023-07-09T06:04:15;24.6;65.4
78448;SHT31;67742;51.972;5.682;2023-07-09T06:06:46;24.6;65.1
78448;SHT31;67742;51.972;5.682;2023-07-09T06:09:15;24.7;65.3
78448;SHT31;67742;51.972;5.682;2023-07-09T06:11:44;24.7;65.0
78448;SHT31;67742;51.972;5.682;2023-07-09T06:14:13;24.8;64.3
78448;SHT31;67742;51.972;5.682;2023-07-09T06:16:43;24.8;64.4
78448;SHT31;67742;51.972;5.682;2023-07-09T06:19:12;24.9;64.0
78448;SHT31;67742;51.972;5.682;2023-07-09T06:21:41;25.0;63.7
78448;SHT31;67742;51.972;5.682;2023-07-09T06:24:10;25.0;63.6
78448;SHT31;67742;51.972;5.682;2023-07-09T06:26:39;25.1;63.1
78448;SHT31;67742;51.972;5.682;2023-07-09T06:29:08;25.1;63.1
78448;SHT31;67742;51.972;5.682;2023-07-09T06:31:37;25.2;63.2
78448;SHT31;67742;51.972;5.682;2023-07-09T06:34:06;25.2;63.2
78448;SHT31;67742;51.972;5.682;2023-07-09T06:36:36;25.3;63.6
78448;SHT31;67742;51.972;5.682;2023-07-09T06:39:05;25.3;63.5
78448;SHT31;67742;51.972;5.682;2023-07-09T06:41:34;25.4;63.5
78448;SHT31;67742;51.972;5.682;2023-07-09T06:44:06;25.4;63.3
78448;SHT31;67742;51.972;5.682;2023-07-09T06:46:35;25.5;62.8
78448;SHT31;67742;51.972;5.682;2023-07-09T06:49:05;25.5;63.3
78448;SHT31;67742;51.972;5.682;2023-07-09T06:51:35;25.6;63.4
78448;SHT31;67742;51.972;5.682;2023-07-09T06:54:04;25.6;63.8
78448;SHT31;67742;51.972;5.682;2023-07-09T06:56:35;25.7;63.9
78448;SHT31;67742;51.972;5.682;2023-07-09T06:59:04;25.7;64.3
78448;SHT31;67742;51.972;5.682;2023-07-09T07:01:34;25.8;64.3
78448;SHT31;67742;51.972;5.682;2023-07-09T07:04:03;25.9;63.8
78448;SHT31;67742;51.972;5.682;2023-07-09T07:06:33;25.9;63.4
78448;SHT31;67742;51.972;5.682;2023-07-09T07:09:03;26.0;63.1
78448;SHT31;67742;51.972;5.682;2023-07-09T07:11:32;26.0;63.0
78448;SHT31;67742;51.972;5.682;2023-07-09T07:14:01;26.1;63.3
78448;SHT31;67742;51.972;5.682;2023-07-09T07:16:29;26.1;63.2
78448;SHT31;67742;51.972;5.682;2023-07-09T07:18:58;26.2;62.6
78448;SHT31;67742;51.972;5.682;2023-07-09T07:21:27;26.3;62.6
78448;SHT31;67742;51.972;5.682;2023-07-09T07:23:56;26.3;63.3
78448;SHT31;67742;51.972;5.682;2023-07-09T07:26:25;26.4;63.7
78448;SHT31;67742;51.972;5.682;2023-07-09T07:28:56;26.5;63.6
78448;SHT31;67742;51.972;5.682;2023-07-09T07:31:24;26.5;62.0
78448;SHT31;67742;51.972;5.682;2023-07-09T07:33:53;26.6;61.2
78448;SHT31;67742;51.972;5.682;2023-07-09T07:36:22;26.7;61.7
78448;SHT31;67742;51.972;5.682;2023-07-09T07:38:50;26.8;62.0
78448;SHT31;67742;51.972;5.682;2023-07-09T07:41:19;26.8;61.8
78448;SHT31;67742;51.972;5.682;2023-07-09T07:43:48;26.9;61.6
78448;SHT31;67742;51.972;5.682;2023-07-09T07:46:16;27.0;61.8
78448;SHT31;67742;51.972;5.682;2023-07-09T07:48:45;27.1;61.5
78448;SHT31;67742;51.972;5.682;2023-07-09T07:51:14;27.2;61.5
78448;SHT31;67742;51.972;5.682;2023-07-09T07:53:44;27.2;61.5
78448;SHT31;67742;51.972;5.682;2023-07-09T07:56:13;27.3;61.1
78448;SHT31;67742;51.972;5.682;2023-07-09T07:58:43;27.4;60.7
78448;SHT31;67742;51.972;5.682;2023-07-09T08:01:12;27.5;59.9
78448;SHT31;67742;51.972;5.682;2023-07-09T08:03:40;27.6;60.2
78448;SHT31;67742;51.972;5.682;2023-07-09T08:06:11;27.7;60.4
78448;SHT31;67742;51.972;5.682;2023-07-09T08:08:40;27.9;60.4
78448;SHT31;67742;51.972;5.682;2023-07-09T08:11:09;28.0;60.3
78448;SHT31;67742;51.972;5.682;2023-07-09T08:13:38;28.1;59.5
78448;SHT31;67742;51.972;5.682;2023-07-09T08:16:08;28.2;59.4
78448;SHT31;67742;51.972;5.682;2023-07-09T08:18:38;28.3;58.6
78448;SHT31;67742;51.972;5.682;2023-07-09T08:21:07;28.4;58.7
78448;SHT31;67742;51.972;5.682;2023-07-09T08:23:38;28.5;58.7
78448;SHT31;67742;51.972;5.682;2023-07-09T08:26:07;28.6;58.2
78448;SHT31;67742;51.972;5.682;2023-07-09T08:28:37;28.7;57.6
78448;SHT31;67742;51.972;5.682;2023-07-09T08:31:06;28.8;57.7
78448;SHT31;67742;51.972;5.682;2023-07-09T08:33:35;28.9;57.5
78448;SHT31;67742;51.972;5.682;2023-07-09T08:36:06;29.0;56.9
78448;SHT31;67742;51.972;5.682;2023-07-09T08:38:35;29.1;56.3
78448;SHT31;67742;51.972;5.682;2023-07-09T08:41:17;29.2;56.7
78448;SHT31;67742;51.972;5.682;2023-07-09T08:44:00;29.3;56.6
78448;SHT31;67742;51.972;5.682;2023-07-09T08:46:43;29.4;55.5
78448;SHT31;67742;51.972;5.682;2023-07-09T08:49:18;29.5;55.9
78448;SHT31;67742;51.972;5.682;2023-07-09T08:51:48;29.5;55.6
78448;SHT31;67742;51.972;5.682;2023-07-09T08:54:26;29.6;54.7
78448;SHT31;67742;51.972;5.682;2023-07-09T08:57:02;29.6;55.5
78448;SHT31;67742;51.972;5.682;2023-07-09T08:59:34;29.7;54.4
78448;SHT31;67742;51.972;5.682;2023-07-09T09:02:14;29.8;55.0
78448;SHT31;67742;51.972;5.682;2023-07-09T09:04:45;29.8;54.5
78448;SHT31;67742;51.972;5.682;2023-07-09T09:07:31;29.9;53.9
78448;SHT31;67742;51.972;5.682;2023-07-09T09:09:57;29.9;54.9
78448;SHT31;67742;51.972;5.682;2023-07-09T09:12:30;30.0;54.8
78448;SHT31;67742;51.972;5.682;2023-07-09T09:15:04;30.0;53.6
78448;SHT31;67742;51.972;5.682;2023-07-09T09:17:39;30.1;54.5
78448;SHT31;67742;51.972;5.682;2023-07-09T09:20:12;30.1;53.1
78448;SHT31;67742;51.972;5.682;2023-07-09T09:22:50;30.2;53.2
78448;SHT31;67742;51.972;5.682;2023-07-09T09:25:26;30.2;53.6
78448;SHT31;67742;51.972;5.682;2023-07-09T09:27:55;30.3;53.9
78448;SHT31;67742;51.972;5.682;2023-07-09T09:30:25;30.4;53.9
78448;SHT31;67742;51.972;5.682;2023-07-09T09:32:56;30.4;52.9
78448;SHT31;67742;51.972;5.682;2023-07-09T09:35:30;30.5;53.3
78448;SHT31;67742;51.972;5.682;2023-07-09T09:38:08;30.6;52.4
78448;SHT31;67742;51.972;5.682;2023-07-09T09:40:36;30.7;52.0
78448;SHT31;67742;51.972;5.682;2023-07-09T09:43:12;30.7;51.7
78448;SHT31;67742;51.972;5.682;2023-07-09T09:45:44;30.8;51.8
78448;SHT31;67742;51.972;5.682;2023-07-09T09:48:17;30.9;53.0
78448;SHT31;67742;51.972;5.682;2023-07-09T09:50:47;31.1;51.8
78448;SHT31;67742;51.972;5.682;2023-07-09T09:53:23;31.2;51.7
78448;SHT31;67742;51.972;5.682;2023-07-09T09:55:53;31.3;50.3
78448;SHT31;67742;51.972;5.682;2023-07-09T09:58:28;31.4;50.5
78448;SHT31;67742;51.972;5.682;2023-07-09T10:00:59;31.5;49.2
78448;SHT31;67742;51.972;5.682;2023-07-09T10:03:36;31.7;48.7
78448;SHT31;67742;51.972;5.682;2023-07-09T10:06:15;31.8;48.1
78448;SHT31;67742;51.972;5.682;2023-07-09T10:08:55;32.0;48.6
78448;SHT31;67742;51.972;5.682;2023-07-09T10:11:31;32.1;47.3
78448;SHT31;67742;51.972;5.682;2023-07-09T10:14:11;32.3;47.5
78448;SHT31;67742;51.972;5.682;2023-07-09T10:16:47;32.5;47.8
78448;SHT31;67742;51.972;5.682;2023-07-09T10:19:33;32.6;47.2
78448;SHT31;67742;51.972;5.682;2023-07-09T10:22:07;32.8;44.6
78448;SHT31;67742;51.972;5.682;2023-07-09T10:24:56;32.9;45.0
78448;SHT31;67742;51.972;5.682;2023-07-09T10:27:43;33.1;44.5
78448;SHT31;67742;51.972;5.682;2023-07-09T10:30:32;33.2;45.2
78448;SHT31;67742;51.972;5.682;2023-07-09T10:33:09;33.4;44.2
78448;SHT31;67742;51.972;5.682;2023-07-09T10:35:47;33.5;44.7
78448;SHT31;67742;51.972;5.682;2023-07-09T10:38:27;33.7;42.3
78448;SHT31;67742;51.972;5.682;2023-07-09T10:41:10;33.9;42.2
78448;SHT31;67742;51.972;5.682;2023-07-09T10:43:45;34.0;42.9
78448;SHT31;67742;51.972;5.682;2023-07-09T10:46:23;34.2;42.2
78448;SHT31;67742;51.972;5.682;2023-07-09T10:48:55;34.4;41.9
78448;SHT31;67742;51.972;5.682;2023-07-09T10:51:29;34.6;41.7
78448;SHT31;67742;51.972;5.682;2023-07-09T10:54:07;34.8;41.2
78448;SHT31;67742;51.972;5.682;2023-07-09T10:56:42;35.0;39.7
78448;SHT31;67742;51.972;5.682;2023-07-09T10:59:27;35.2;38.8
78448;SHT31;67742;51.972;5.682;2023-07-09T11:02:15;35.4;36.4
78448;SHT31;67742;51.972;5.682;2023-07-09T11:04:49;35.5;37.0
78448;SHT31;67742;51.972;5.682;2023-07-09T11:07:29;35.6;39.0
78448;SHT31;67742;51.972;5.682;2023-07-09T11:10:02;35.7;36.5
78448;SHT31;67742;51.972;5.682;2023-07-09T11:12:37;35.8;38.1
78448;SHT31;67742;51.972;5.682;2023-07-09T11:15:13;35.9;38.0
78448;SHT31;67742;51.972;5.682;2023-07-09T11:17:47;36.1;36.3
78448;SHT31;67742;51.972;5.682;2023-07-09T11:20:25;36.2;37.3
78448;SHT31;67742;51.972;5.682;2023-07-09T11:25:43;36.5;37.3
78448;SHT31;67742;51.972;5.682;2023-07-09T11:28:13;36.6;35.2
78448;SHT31;67742;51.972;5.682;2023-07-09T11:30:51;36.7;35.0
78448;SHT31;67742;51.972;5.682;2023-07-09T11:33:28;36.8;36.2
78448;SHT31;67742;51.972;5.682;2023-07-09T11:36:09;36.9;35.9
78448;SHT31;67742;51.972;5.682;2023-07-09T11:38:43;37.0;35.2
78448;SHT31;67742;51.972;5.682;2023-07-09T11:41:37;37.0;35.5
78448;SHT31;67742;51.972;5.682;2023-07-09T11:44:15;37.1;35.6
78448;SHT31;67742;51.972;5.682;2023-07-09T11:46:51;37.2;34.3
78448;SHT31;67742;51.972;5.682;2023-07-09T11:49:26;37.3;35.4
78448;SHT31;67742;51.972;5.682;2023-07-09T11:52:00;37.4;34.1
78448;SHT31;67742;51.972;5.682;2023-07-09T11:54:33;37.4;34.6
78448;SHT31;67742;51.972;5.682;2023-07-09T11:57:09;37.5;35.3
78448;SHT31;67742;51.972;5.682;2023-07-09T11:59:41;37.5;34.0
78448;SHT31;67742;51.972;5.682;2023-07-09T12:02:16;37.6;34.5
78448;SHT31;67742;51.972;5.682;2023-07-09T12:04:48;37.6;35.0
78448;SHT31;67742;51.972;5.682;2023-07-09T12:07:20;37.6;35.1
78448;SHT31;67742;51.972;5.682;2023-07-09T12:09:52;37.7;35.4
78448;SHT31;67742;51.972;5.682;2023-07-09T12:12:25;37.7;34.5
78448;SHT31;67742;51.972;5.682;2023-07-09T12:14:57;37.7;34.1
78448;SHT31;67742;51.972;5.682;2023-07-09T12:17:28;37.7;35.1
78448;SHT31;67742;51.972;5.682;2023-07-09T12:19:59;37.7;34.9
78448;SHT31;67742;51.972;5.682;2023-07-09T12:22:28;37.7;34.0
78448;SHT31;67742;51.972;5.682;2023-07-09T12:24:58;37.7;34.1
78448;SHT31;67742;51.972;5.682;2023-07-09T12:27:31;37.7;34.8
78448;SHT31;67742;51.972;5.682;2023-07-09T12:30:11;37.6;35.0
78448;SHT31;67742;51.972;5.682;2023-07-09T12:32:46;37.6;35.9
78448;SHT31;67742;51.972;5.682;2023-07-09T12:35:17;37.6;34.9
78448;SHT31;67742;51.972;5.682;2023-07-09T12:37:47;37.6;35.9
78448;SHT31;67742;51.972;5.682;2023-07-09T12:40:21;37.5;35.5
78448;SHT31;67742;51.972;5.682;2023-07-09T12:42:52;37.4;35.7
78448;SHT31;67742;51.972;5.682;2023-07-09T12:45:22;37.3;35.7
78448;SHT31;67742;51.972;5.682;2023-07-09T12:47:54;37.2;35.7
78448;SHT31;67742;51.972;5.682;2023-07-09T12:50:28;37.0;36.1
78448;SHT31;67742;51.972;5.682;2023-07-09T12:53:02;36.9;36.5
78448;SHT31;67742;51.972;5.682;2023-07-09T12:55:39;36.7;36.9
78448;SHT31;67742;51.972;5.682;2023-07-09T12:58:13;36.6;36.9
78448;SHT31;67742;51.972;5.682;2023-07-09T13:00:47;36.5;37.3
78448;SHT31;67742;51.972;5.682;2023-07-09T13:03:20;36.4;37.0
78448;SHT31;67742;51.972;5.682;2023-07-09T13:05:58;36.3;36.9
78448;SHT31;67742;51.972;5.682;2023-07-09T13:08:30;36.2;37.0
78448;SHT31;67742;51.972;5.682;2023-07-09T13:11:00;36.2;36.6
78448;SHT31;67742;51.972;5.682;2023-07-09T13:13:29;36.1;37.2
78448;SHT31;67742;51.972;5.682;2023-07-09T13:16:01;36.0;37.3
78448;SHT31;67742;51.972;5.682;2023-07-09T13:18:30;35.9;37.4
78448;SHT31;67742;51.972;5.682;2023-07-09T13:21:00;35.8;38.2
78448;SHT31;67742;51.972;5.682;2023-07-09T13:23:32;35.8;38.9
78448;SHT31;67742;51.972;5.682;2023-07-09T13:26:01;35.7;39.2
78448;SHT31;67742;51.972;5.682;2023-07-09T13:28:31;35.6;39.5
78448;SHT31;67742;51.972;5.682;2023-07-09T13:31:10;35.5;41.0
78448;SHT31;67742;51.972;5.682;2023-07-09T13:33:41;35.3;42.1
78448;SHT31;67742;51.972;5.682;2023-07-09T13:36:12;35.2;42.7
78448;SHT31;67742;51.972;5.682;2023-07-09T13:38:41;35.0;43.0
78448;SHT31;67742;51.972;5.682;2023-07-09T13:41:16;34.9;43.3
78448;SHT31;67742;51.972;5.682;2023-07-09T13:43:49;34.7;42.8
78448;SHT31;67742;51.972;5.682;2023-07-09T13:46:18;34.6;41.9
78448;SHT31;67742;51.972;5.682;2023-07-09T13:48:48;34.4;42.0
78448;SHT31;67742;51.972;5.682;2023-07-09T13:51:20;34.2;42.1
78448;SHT31;67742;51.972;5.682;2023-07-09T13:53:53;34.0;42.4
78448;SHT31;67742;51.972;5.682;2023-07-09T13:56:26;33.8;42.9
78448;SHT31;67742;51.972;5.682;2023-07-09T13:58:55;33.7;41.6
78448;SHT31;67742;51.972;5.682;2023-07-09T14:01:24;33.5;40.8
78448;SHT31;67742;51.972;5.682;2023-07-09T14:03:56;33.2;41.0
78448;SHT31;67742;51.972;5.682;2023-07-09T14:06:27;32.9;41.8
78448;SHT31;67742;51.972;5.682;2023-07-09T14:08:55;32.6;42.4
78448;SHT31;67742;51.972;5.682;2023-07-09T14:11:25;32.5;42.5
78448;SHT31;67742;51.972;5.682;2023-07-09T14:13:56;32.3;42.9
78448;SHT31;67742;51.972;5.682;2023-07-09T14:16:25;32.1;43.3
78448;SHT31;67742;51.972;5.682;2023-07-09T14:18:54;32.0;43.7
78448;SHT31;67742;51.972;5.682;2023-07-09T14:21:25;31.8;43.9
78448;SHT31;67742;51.972;5.682;2023-07-09T14:23:54;31.7;43.8
78448;SHT31;67742;51.972;5.682;2023-07-09T14:26:23;31.5;43.3
78448;SHT31;67742;51.972;5.682;2023-07-09T14:28:52;31.4;43.6
78448;SHT31;67742;51.972;5.682;2023-07-09T14:31:26;31.2;43.5
78448;SHT31;67742;51.972;5.682;2023-07-09T14:34:08;31.0;44.1
78448;SHT31;67742;51.972;5.682;2023-07-09T14:36:38;30.8;44.9
78448;SHT31;67742;51.972;5.682;2023-07-09T14:39:10;30.7;44.8
78448;SHT31;67742;51.972;5.682;2023-07-09T14:41:40;30.6;45.2
78448;SHT31;67742;51.972;5.682;2023-07-09T14:44:22;30.5;46.1
78448;SHT31;67742;51.972;5.682;2023-07-09T14:46:54;30.4;47.1
78448;SHT31;67742;51.972;5.682;2023-07-09T14:49:23;30.3;48.4
78448;SHT31;67742;51.972;5.682;2023-07-09T14:51:53;30.0;50.8
78448;SHT31;67742;51.972;5.682;2023-07-09T14:54:24;29.4;52.6
78448;SHT31;67742;51.972;5.682;2023-07-09T14:56:55;28.3;55.2
78448;SHT31;67742;51.972;5.682;2023-07-09T14:59:25;27.5;57.7
78448;SHT31;67742;51.972;5.682;2023-07-09T15:01:54;27.1;59.4
78448;SHT31;67742;51.972;5.682;2023-07-09T15:04:32;26.9;59.7
78448;SHT31;67742;51.972;5.682;2023-07-09T15:07:01;26.6;60.8
78448;SHT31;67742;51.972;5.682;2023-07-09T15:09:37;26.4;62.3
78448;SHT31;67742;51.972;5.682;2023-07-09T15:12:18;26.2;62.5
78448;SHT31;67742;51.972;5.682;2023-07-09T15:14:51;26.1;63.4
78448;SHT31;67742;51.972;5.682;2023-07-09T15:17:19;26.0;63.3
78448;SHT31;67742;51.972;5.682;2023-07-09T15:19:48;26.0;63.9
78448;SHT31;67742;51.972;5.682;2023-07-09T15:22:30;25.9;64.4
78448;SHT31;67742;51.972;5.682;2023-07-09T15:25:00;25.9;64.5
78448;SHT31;67742;51.972;5.682;2023-07-09T15:27:30;26.0;64.3
78448;SHT31;67742;51.972;5.682;2023-07-09T15:30:00;26.0;64.5
78448;SHT31;67742;51.972;5.682;2023-07-09T15:32:29;26.0;64.1
78448;SHT31;67742;51.972;5.682;2023-07-09T15:34:58;26.1;64.4
78448;SHT31;67742;51.972;5.682;2023-07-09T15:37:26;26.1;64.5
78448;SHT31;67742;51.972;5.682;2023-07-09T15:39:55;26.2;64.4
78448;SHT31;67742;51.972;5.682;2023-07-09T15:42:24;26.2;63.9
78448;SHT31;67742;51.972;5.682;2023-07-09T15:44:53;26.3;63.4
78448;SHT31;67742;51.972;5.682;2023-07-09T15:47:26;26.3;63.5
78448;SHT31;67742;51.972;5.682;2023-07-09T15:49:55;26.4;63.6
78448;SHT31;67742;51.972;5.682;2023-07-09T15:52:24;26.5;64.0
78448;SHT31;67742;51.972;5.682;2023-07-09T15:54:53;26.6;64.1
78448;SHT31;67742;51.972;5.682;2023-07-09T15:57:21;26.8;63.0
78448;SHT31;67742;51.972;5.682;2023-07-09T15:59:50;26.9;62.9
78448;SHT31;67742;51.972;5.682;2023-07-09T16:02:21;27.0;62.4
78448;SHT31;67742;51.972;5.682;2023-07-09T16:04:49;27.1;62.5
78448;SHT31;67742;51.972;5.682;2023-07-09T16:07:18;27.2;62.0
78448;SHT31;67742;51.972;5.682;2023-07-09T16:09:49;27.3;62.5
78448;SHT31;67742;51.972;5.682;2023-07-09T16:12:18;27.3;62.3
78448;SHT31;67742;51.972;5.682;2023-07-09T16:14:49;27.4;61.5
78448;SHT31;67742;51.972;5.682;2023-07-09T16:17:18;27.4;61.8
78448;SHT31;67742;51.972;5.682;2023-07-09T16:19:46;27.5;62.4
78448;SHT31;67742;51.972;5.682;2023-07-09T16:22:17;27.5;61.8
78448;SHT31;67742;51.972;5.682;2023-07-09T16:24:48;27.5;61.9
78448;SHT31;67742;51.972;5.682;2023-07-09T16:27:17;27.5;61.7
78448;SHT31;67742;51.972;5.682;2023-07-09T16:29:46;27.5;61.5
78448;SHT31;67742;51.972;5.682;2023-07-09T16:32:14;27.6;62.0